Time;durP1;ratioP1;P1;durP2;ratioP2;P2;SDS_P1;SDS_P2;PMS_P1;PMS_P2;Temp;Humidity;BMP_temperature;BMP_pressure;BME280_temperature;BME280_humidity;BME280_pressure;Samples;Min_cycle;Max_cycle;Signal;HPM_P1;HPM_P2
2023/10/22 00:00:28;;;;;;;10.30;3.30;;;;;;;16.87;72.10;98080.05;108354;1254;107787;-78
2023/10/22 00:03:39;;;;;;;14.90;2.90;;;;;;;16.86;72.27;98077.11;106612;1254;96118;-78
2023/10/22 00:06:15;;;;;;;10.10;2.80;;;;;;;16.86;72.33;98074.89;108374;1254;94709;-78
2023/10/22 00:08:48;;;;;;;9.00;3.60;;;;;;;16.85;72.19;98075.46;108283;1254;110119;-78
2023/10/22 00:11:27;;;;;;;13.00;4.40;;;;;;;16.85;72.34;98079.66;108363;1254;95834;-79
2023/10/22 00:14:17;;;;;;;12.50;3.10;;;;;;;16.82;72.45;98087.63;108289;1254;108206;-78
2023/10/22 00:16:53;;;;;;;21.40;3.60;;;;;;;16.80;72.31;98089.98;108322;1254;94288;-78
2023/10/22 00:19:26;;;;;;;15.70;3.80;;;;;;;16.78;72.55;98091.63;108373;1254;94767;-78
2023/10/22 00:22:02;;;;;;;8.40;3.00;;;;;;;16.78;72.56;98088.61;108352;1254;110554;-78
2023/10/22 00:24:43;;;;;;;13.50;3.60;;;;;;;16.77;72.46;98077.08;108374;1254;96147;-78
2023/10/22 00:27:33;;;;;;;13.50;3.10;;;;;;;16.77;72.60;98079.99;108328;1254;107473;-78
2023/10/22 00:30:05;;;;;;;9.80;3.10;;;;;;;16.76;72.62;98091.34;108285;1253;94550;-79
2023/10/22 00:33:10;;;;;;;12.30;3.30;;;;;;;16.75;72.76;98090.95;108265;1254;94610;-78
2023/10/22 00:36:11;;;;;;;;;;;;;;;;;;;;;
2023/10/22 00:38:42;;;;;;;10.40;3.40;;;;;;;16.69;72.71;98093.64;108440;1254;95682;-78
2023/10/22 00:41:47;;;;;;;12.30;3.30;;;;;;;16.69;72.79;98084.80;108398;1254;106649;-78
2023/10/22 00:44:18;;;;;;;10.10;3.10;;;;;;;16.69;72.76;98081.05;108476;1254;94309;-78
2023/10/22 00:46:50;;;;;;;9.20;2.80;;;;;;;16.69;72.78;98077.89;108299;1254;94626;-79
2023/10/22 00:49:21;;;;;;;10.20;2.50;;;;;;;16.68;72.79;98074.52;108308;1254;108949;-78
2023/10/22 00:51:58;;;;;;;9.70;2.70;;;;;;;16.67;72.81;98064.08;108300;1259;96018;-78
2023/10/22 00:54:47;;;;;;;13.10;2.80;;;;;;;16.66;72.76;98064.67;108382;1254;107605;-79
2023/10/22 00:57:37;;;;;;;10.20;3.30;;;;;;;16.65;72.77;98068.71;108398;1254;94246;-78
2023/10/22 01:03:34;;;;;;;12.90;3.20;;;;;;;16.61;72.88;98076.95;108507;1254;110975;-78
2023/10/22 01:06:04;;;;;;;9.40;3.00;;;;;;;16.59;72.92;98085.80;108387;1256;95197;-78
2023/10/22 01:08:41;;;;;;;11.60;2.90;;;;;;;16.57;72.96;98088.07;108365;1254;107526;-78
2023/10/22 01:11:17;;;;;;;12.70;3.30;;;;;;;16.55;72.91;98081.50;108393;1254;94664;-78
2023/10/22 01:13:50;;;;;;;13.40;3.10;;;;;;;16.54;72.99;98072.91;108437;1254;94575;-78
2023/10/22 01:16:27;;;;;;;11.00;2.90;;;;;;;16.54;73.18;98073.98;108361;1254;110434;-78
2023/10/22 01:18:59;;;;;;;10.60;2.90;;;;;;;16.54;73.11;98071.88;108444;1254;95763;-78
2023/10/22 01:21:45;;;;;;;13.90;3.30;;;;;;;16.52;73.32;98069.34;108341;1254;107839;-78
2023/10/22 01:24:35;;;;;;;13.20;3.40;;;;;;;16.51;73.01;98062.63;108425;1254;94698;-78
2023/10/22 01:27:05;;;;;;;8.20;2.80;;;;;;;16.51;73.25;98060.35;108431;1254;94403;-79
2023/10/22 01:29:47;;;;;;;10.90;3.00;;;;;;;16.50;73.07;98056.58;108379;1254;110285;-78
2023/10/22 01:32:30;;;;;;;7.70;2.80;;;;;;;16.49;73.30;98055.78;108308;1254;94869;-79
2023/10/22 01:35:01;;;;;;;10.60;3.10;;;;;;;16.48;73.19;98050.68;108349;1254;107440;-78
2023/10/22 01:38:08;;;;;;;10.60;2.60;;;;;;;16.47;73.23;98044.84;108376;1254;94585;-78
2023/10/22 01:40:52;;;;;;;13.40;3.40;;;;;;;16.47;73.34;98039.55;108438;1254;94312;-78
2023/10/22 01:43:22;;;;;;;11.80;3.20;;;;;;;16.47;73.33;98034.92;108262;1254;111180;-78
2023/10/22 01:46:07;;;;;;;12.10;3.60;;;;;;;16.47;73.50;98021.87;108450;1254;95632;-78
2023/10/22 01:48:43;;;;;;;10.70;3.10;;;;;;;16.46;73.33;98004.92;108401;1254;107812;-78
2023/10/22 01:51:21;;;;;;;12.70;3.10;;;;;;;16.45;73.61;98004.46;108346;1259;94379;-78
2023/10/22 01:53:53;;;;;;;10.20;3.50;;;;;;;16.44;73.40;98008.89;108281;1254;94391;-78
2023/10/22 01:56:25;;;;;;;10.80;3.30;;;;;;;16.43;73.47;98002.77;108398;1254;109496;-79
2023/10/22 01:59:08;;;;;;;9.30;2.80;;;;;;;16.42;73.44;97992.83;108347;1254;96628;-78
2023/10/22 02:01:54;;;;;;;6.50;2.60;;;;;;;16.43;73.56;97981.48;108318;1254;107232;-78
2023/10/22 02:04:33;;;;;;;11.30;2.80;;;;;;;16.42;73.65;97979.74;108312;1255;94291;-78
2023/10/22 02:07:21;;;;;;;13.80;3.20;;;;;;;16.40;73.49;97974.99;108378;1253;94376;-79
2023/10/22 02:09:57;;;;;;;9.30;2.60;;;;;;;16.39;73.77;97974.55;108294;1256;110441;-78
2023/10/22 02:12:51;;;;;;;9.40;3.00;;;;;;;16.38;73.78;97977.85;108334;1254;96648;-78
2023/10/22 02:15:26;;;;;;;10.70;3.10;;;;;;;16.38;73.56;97980.06;108299;1253;107855;-78
2023/10/22 02:18:02;;;;;;;14.50;3.30;;;;;;;16.37;73.55;97984.80;108313;1254;94568;-78
2023/10/22 02:20:31;;;;;;;9.40;3.00;;;;;;;16.35;73.72;97979.25;108300;1255;94314;-78
2023/10/22 02:23:09;;;;;;;12.50;3.00;;;;;;;16.36;73.67;97974.04;108287;1259;109953;-78
2023/10/22 02:25:44;;;;;;;11.30;2.70;;;;;;;16.36;73.75;97976.52;108266;1254;95590;-78
2023/10/22 02:28:22;;;;;;;14.70;3.30;;;;;;;16.37;73.68;97977.65;108439;1254;107198;-78
2023/10/22 02:30:50;;;;;;;10.90;3.30;;;;;;;16.37;73.89;97978.33;108286;1254;94680;-78
2023/10/22 02:33:36;;;;;;;15.10;3.50;;;;;;;16.38;73.70;97977.02;108269;1254;94483;-79
2023/10/22 02:36:22;;;;;;;16.90;4.20;;;;;;;16.39;73.86;97976.41;108340;1253;109474;-78
2023/10/22 02:38:53;;;;;;;11.70;3.60;;;;;;;16.40;73.76;97973.45;108330;1254;95994;-78
2023/10/22 02:41:39;;;;;;;14.30;3.60;;;;;;;16.41;73.81;97972.04;108329;1254;107282;-78
2023/10/22 02:44:22;;;;;;;12.90;3.50;;;;;;;16.41;73.78;97967.50;108294;1255;94726;-78
2023/10/22 02:47:14;;;;;;;;;;;;;;;;;;;;;
2023/10/22 02:49:56;;;;;;;11.80;2.90;;;;;;;16.43;73.80;97964.44;108446;1256;111809;-78
2023/10/22 02:52:32;;;;;;;13.80;3.50;;;;;;;16.44;73.75;97965.25;108501;1256;95865;-78
2023/10/22 02:55:06;;;;;;;13.90;3.20;;;;;;;16.44;73.90;97967.05;108335;1252;107647;-78
2023/10/22 02:57:47;;;;;;;;;;;;;;;16.44;73.80;97963.63;108483;1254;94418;-78
2023/10/22 03:00:29;;;;;;;13.80;3.10;;;;;;;16.44;73.95;97974.77;108477;1254;95041;-78
2023/10/22 03:03:08;;;;;;;11.50;3.10;;;;;;;16.43;73.83;97972.98;108335;1254;109974;-78
2023/10/22 03:05:37;;;;;;;13.60;3.50;;;;;;;16.43;73.82;97975.92;108481;1254;94323;-78
2023/10/22 03:08:07;;;;;;;9.40;3.40;;;;;;;16.43;73.97;97979.07;108311;1254;107621;-78
2023/10/22 03:10:43;;;;;;;12.30;4.20;;;;;;;16.44;74.01;97972.97;108419;1254;94593;-78
2023/10/22 03:13:28;;;;;;;13.80;3.20;;;;;;;16.45;74.03;97973.23;108415;1254;94560;-78
2023/10/22 03:15:59;;;;;;;12.30;3.50;;;;;;;16.45;73.88;97971.38;108353;1256;109653;-78
2023/10/22 03:18:44;;;;;;;13.70;3.60;;;;;;;16.44;73.89;97970.20;108444;1253;94432;-78
2023/10/22 03:21:35;;;;;;;10.60;3.60;;;;;;;16.43;73.96;97966.13;108442;1254;107621;-78
2023/10/22 03:24:11;;;;;;;10.10;3.10;;;;;;;16.41;73.89;97959.08;108456;1259;94697;-78
2023/10/22 03:26:47;;;;;;;12.30;3.30;;;;;;;16.41;73.86;97950.36;108354;1254;94347;-78
2023/10/22 03:29:30;;;;;;;;;;;;;;;;;;;;;
2023/10/22 03:32:01;;;;;;;;;;;;;;;16.42;73.98;97940.96;108538;1253;94591;-79
2023/10/22 03:34:33;;;;;;;14.90;3.70;;;;;;;16.41;73.86;97945.77;108469;1254;106284;-78
2023/10/22 03:37:09;;;;;;;14.80;3.80;;;;;;;16.41;74.08;97948.29;108293;1256;94641;-78
2023/10/22 03:39:48;;;;;;;14.90;4.80;;;;;;;16.41;73.91;97948.26;108353;1252;94300;-78
2023/10/22 03:42:23;;;;;;;12.60;3.60;;;;;;;16.40;74.11;97946.55;108271;1254;111155;-78
2023/10/22 03:44:55;;;;;;;14.80;4.10;;;;;;;16.42;73.85;97935.10;108480;1256;95720;-78
2023/10/22 03:47:26;;;;;;;17.20;3.90;;;;;;;16.42;74.02;97935.64;108396;1254;107663;-79
2023/10/22 03:50:14;;;;;;;16.60;3.90;;;;;;;16.41;73.94;97931.38;108443;1254;94318;-78
2023/10/22 03:52:54;;;;;;;15.10;4.30;;;;;;;16.41;74.04;97931.08;108393;1254;94390;-78
2023/10/22 03:55:30;;;;;;;15.10;3.60;;;;;;;16.41;73.90;97934.67;108456;1254;109880;-78
2023/10/22 03:57:58;;;;;;;14.70;4.00;;;;;;;16.41;74.05;97935.34;108424;1256;94552;-78
2023/10/22 04:00:34;;;;;;;17.30;4.20;;;;;;;16.40;73.90;97933.50;108391;1253;107062;-78
2023/10/22 04:03:43;;;;;;;13.60;3.70;;;;;;;16.40;74.00;97933.00;108319;1254;94521;-78
2023/10/22 04:06:34;;;;;;;16.50;4.20;;;;;;;16.40;73.95;97934.73;108417;1254;94647;-78
2023/10/22 04:09:12;;;;;;;12.20;4.00;;;;;;;16.41;73.77;97922.70;108430;1255;110007;-78
2023/10/22 04:11:49;;;;;;;17.10;3.70;;;;;;;16.41;73.93;97922.29;108399;1254;95519;-78
2023/10/22 04:14:47;;;;;;;15.30;4.70;;;;;;;16.42;74.02;97918.92;108447;1255;107652;-79
2023/10/22 04:17:16;;;;;;;17.50;4.10;;;;;;;16.42;74.02;97913.06;108281;1255;94500;-78
2023/10/22 04:19:55;;;;;;;13.90;4.00;;;;;;;16.43;73.79;97908.21;108303;1253;94414;-77
2023/10/22 04:22:41;;;;;;;;;;;;;;;;;;;;;
2023/10/22 04:25:29;;;;;;;;;;;;;;;;;;;;;
2023/10/22 04:28:25;;;;;;;15.90;3.50;;;;;;;16.47;73.93;97898.58;108279;1256;108219;-78
2023/10/22 04:30:55;;;;;;;13.20;3.90;;;;;;;16.48;73.75;97901.79;108466;1255;94305;-78
2023/10/22 04:33:28;;;;;;;16.90;4.40;;;;;;;16.48;73.93;97899.63;108446;1254;94434;-77
2023/10/22 04:35:58;;;;;;;16.90;4.00;;;;;;;16.48;73.89;97898.27;108298;1260;110090;-79
2023/10/22 04:38:50;;;;;;;17.60;4.60;;;;;;;16.48;73.59;97895.75;108437;1254;95301;-80
2023/10/22 04:41:25;;;;;;;15.70;3.60;;;;;;;16.47;73.66;97902.29;108213;1254;107941;-80
2023/10/22 04:44:23;;;;;;;18.90;4.40;;;;;;;16.47;73.74;97897.61;108407;1254;94995;-80
2023/10/22 04:46:52;;;;;;;14.60;4.40;;;;;;;16.47;73.84;97899.41;108464;1254;94310;-79
2023/10/22 04:49:26;;;;;;;15.40;5.40;;;;;;;16.47;73.67;97903.84;108375;1254;109909;-80
2023/10/22 04:52:09;;;;;;;15.70;3.90;;;;;;;16.46;73.67;97909.38;108438;1254;95431;-80
2023/10/22 04:54:44;;;;;;;12.10;4.00;;;;;;;16.45;73.68;97913.82;108455;1254;107751;-79
2023/10/22 04:57:15;;;;;;;;;;;;;;;16.44;73.64;97914.39;108398;1255;94542;-79
2023/10/22 04:59:45;;;;;;;13.10;3.40;;;;;;;16.42;73.84;97914.09;108263;1256;94685;-80
2023/10/22 05:02:15;;;;;;;13.10;3.70;;;;;;;16.41;73.72;97911.40;108365;1256;110966;-80
2023/10/22 05:04:52;;;;;;;15.80;4.40;;;;;;;16.40;73.76;97912.54;108340;1254;95325;-80
2023/10/22 05:07:29;;;;;;;11.00;3.60;;;;;;;16.39;73.71;97918.41;108384;1254;107765;-80
2023/10/22 05:10:05;;;;;;;13.90;4.60;;;;;;;16.38;73.67;97931.56;108285;1254;94395;-79
2023/10/22 05:12:43;;;;;;;20.90;5.20;;;;;;;16.35;73.59;97937.92;108377;1257;94445;-79
2023/10/22 05:15:16;;;;;;;17.60;3.80;;;;;;;16.34;73.83;97938.09;108415;1254;110092;-79
2023/10/22 05:18:31;;;;;;;14.80;4.30;;;;;;;16.35;73.66;97935.66;108304;1254;95975;-80
2023/10/22 05:21:30;;;;;;;14.90;4.00;;;;;;;16.36;73.68;97939.82;108201;1254;108793;-78
2023/10/22 05:24:10;;;;;;;16.40;3.60;;;;;;;16.39;73.56;97940.17;108241;1256;95721;-78
2023/10/22 05:26:47;;;;;;;14.20;4.20;;;;;;;16.42;73.57;97940.96;108417;1254;94897;-78
2023/10/22 05:29:15;;;;;;;12.70;4.00;;;;;;;16.44;73.57;97943.38;108390;1254;108871;-78
2023/10/22 05:32:01;;;;;;;;;;;;;;;16.47;73.42;97944.46;108438;1258;95695;-79
2023/10/22 05:34:41;;;;;;;16.80;3.40;;;;;;;16.51;73.55;97951.34;108290;1255;107391;-78
2023/10/22 05:37:29;;;;;;;;;;;;;;;;;;;;;
2023/10/22 05:40:06;;;;;;;10.20;2.90;;;;;;;16.60;73.28;97953.73;108474;1254;94335;-79
2023/10/22 05:42:40;;;;;;;11.40;3.50;;;;;;;16.63;73.35;97949.09;108397;1254;109939;-79
2023/10/22 05:45:23;;;;;;;14.00;3.50;;;;;;;16.67;73.40;97946.11;108447;1255;95448;-79
2023/10/22 05:48:01;;;;;;;10.30;3.00;;;;;;;16.71;73.33;97948.16;108419;1256;107582;-78
2023/10/22 05:50:36;;;;;;;13.20;3.50;;;;;;;16.74;73.35;97944.58;108476;1254;94682;-78
2023/10/22 05:53:15;;;;;;;11.10;3.50;;;;;;;16.77;73.32;97935.70;108352;1254;94341;-77
2023/10/22 05:55:58;;;;;;;13.00;3.40;;;;;;;16.80;73.05;97936.34;108358;1254;111349;-79
2023/10/22 05:58:37;;;;;;;11.30;3.40;;;;;;;16.84;73.32;97929.02;108497;1254;94528;-79
2023/10/22 06:01:08;;;;;;;16.40;3.60;;;;;;;16.87;73.09;97932.34;108290;1256;107232;-80
2023/10/22 06:03:38;;;;;;;13.70;4.90;;;;;;;16.93;73.14;97939.70;108710;1254;94296;-81
2023/10/22 06:06:07;;;;;;;9.50;3.20;;;;;;;16.98;73.04;97941.14;108469;1256;94536;-81
2023/10/22 06:08:37;;;;;;;15.20;3.90;;;;;;;17.01;72.93;97934.04;108697;1254;109109;-81
2023/10/22 06:11:08;;;;;;;13.60;3.80;;;;;;;17.05;72.99;97936.45;108705;1254;96004;-80
2023/10/22 06:13:36;;;;;;;10.70;3.80;;;;;;;17.07;72.92;97935.16;108591;1254;107352;-80
2023/10/22 06:16:11;;;;;;;16.30;4.30;;;;;;;17.09;73.05;97932.36;108768;1255;94337;-80
2023/10/22 06:18:42;;;;;;;14.90;4.30;;;;;;;17.11;72.92;97931.60;108550;1253;94988;-81
2023/10/22 06:21:14;;;;;;;18.50;4.30;;;;;;;17.12;72.95;97928.02;108722;1253;108749;-79
2023/10/22 06:23:45;;;;;;;15.00;3.80;;;;;;;17.14;72.79;97924.08;108706;1254;95209;-80
2023/10/22 06:26:17;;;;;;;15.10;4.40;;;;;;;17.15;72.83;97913.23;108621;1254;107637;-80
2023/10/22 06:29:02;;;;;;;18.00;4.10;;;;;;;17.16;72.84;97903.56;108774;1254;94605;-80
2023/10/22 06:31:35;;;;;;;15.20;3.90;;;;;;;17.17;72.76;97901.91;108768;1252;94242;-80
2023/10/22 06:34:10;;;;;;;13.50;4.90;;;;;;;17.18;72.97;97912.31;108721;1254;109581;-80
2023/10/22 06:36:38;;;;;;;14.30;4.60;;;;;;;17.19;72.98;97918.86;108767;1254;95256;-79
2023/10/22 06:39:07;;;;;;;16.30;4.20;;;;;;;17.18;72.86;97925.38;108733;1254;107690;-80
2023/10/22 06:41:35;;;;;;;15.70;4.50;;;;;;;17.17;72.88;97926.40;108702;1255;94274;-80
2023/10/22 06:44:06;;;;;;;16.90;4.60;;;;;;;17.17;72.66;97928.20;108770;1254;94235;-79
2023/10/22 06:46:36;;;;;;;16.40;3.80;;;;;;;17.18;72.62;97930.80;108659;1256;109593;-80
2023/10/22 06:49:04;;;;;;;13.20;3.80;;;;;;;17.17;72.59;97933.02;108742;1254;95541;-79
2023/10/22 06:51:41;;;;;;;14.10;4.00;;;;;;;17.17;72.73;97933.63;108682;1254;106540;-79
2023/10/22 06:54:14;;;;;;;13.80;4.00;;;;;;;17.16;72.56;97928.12;108540;1254;94645;-80
2023/10/22 06:56:42;;;;;;;17.30;4.50;;;;;;;17.16;72.72;97926.67;108747;1254;94264;-80
2023/10/22 06:59:10;;;;;;;17.20;4.40;;;;;;;17.16;72.70;97930.98;108703;1255;109390;-80
2023/10/22 07:01:41;;;;;;;13.70;4.00;;;;;;;17.16;72.58;97935.41;108792;1254;95492;-80
2023/10/22 07:04:09;;;;;;;16.90;4.40;;;;;;;17.17;72.66;97935.33;108681;1254;107662;-80
2023/10/22 07:06:38;;;;;;;17.20;4.40;;;;;;;17.18;72.49;97933.61;108680;1254;94291;-79
2023/10/22 07:09:16;;;;;;;16.70;4.70;;;;;;;17.20;72.51;97941.09;108768;1254;94637;-80
2023/10/22 07:11:51;;;;;;;15.10;5.20;;;;;;;17.22;72.50;97941.44;108729;1256;110285;-77
2023/10/22 07:14:18;;;;;;;16.80;4.50;;;;;;;17.22;72.58;97940.34;108744;1254;94800;-77
2023/10/22 07:16:46;;;;;;;13.70;5.50;;;;;;;17.23;72.37;97939.52;108708;1254;107643;-79
2023/10/22 07:19:14;;;;;;;16.10;4.50;;;;;;;17.24;72.49;97938.77;108741;1257;94182;-79
2023/10/22 07:21:42;;;;;;;18.50;4.70;;;;;;;17.26;72.52;97939.25;108712;1257;94536;-79
2023/10/22 07:24:10;;;;;;;15.00;4.50;;;;;;;17.28;72.38;97944.27;108672;1254;109982;-79
2023/10/22 07:26:42;;;;;;;19.80;5.00;;;;;;;17.30;72.52;97942.48;108710;1254;94837;-82
2023/10/22 07:29:14;;;;;;;16.60;4.70;;;;;;;17.32;72.45;97944.59;108546;1255;106791;-80
2023/10/22 07:31:43;;;;;;;15.20;4.50;;;;;;;17.34;72.49;97937.15;108489;1254;94607;-82
2023/10/22 07:34:12;;;;;;;14.70;4.60;;;;;;;17.33;72.51;97933.10;108524;1256;94274;-82
2023/10/22 07:36:45;;;;;;;16.70;4.50;;;;;;;17.34;72.51;97929.94;108595;1254;108947;-81
2023/10/22 07:39:12;;;;;;;19.00;5.00;;;;;;;17.36;72.59;97925.81;108610;1254;95514;-82
2023/10/22 07:41:43;;;;;;;14.00;4.70;;;;;;;17.39;72.62;97926.86;108650;1256;107583;-82
2023/10/22 07:44:13;;;;;;;17.30;4.80;;;;;;;17.44;72.48;97928.09;108587;1258;94332;-81
2023/10/22 07:46:41;;;;;;;16.20;6.00;;;;;;;17.51;72.53;97921.89;108529;1258;94389;-81
2023/10/22 07:49:11;;;;;;;18.30;6.20;;;;;;;17.61;72.57;97925.65;108471;1258;109417;-80
2023/10/22 07:51:49;;;;;;;;;;;;;;;;;;;;;
2023/10/22 07:54:17;;;;;;;17.30;5.40;;;;;;;17.80;72.57;97937.67;108675;1254;107142;-80
2023/10/22 07:57:05;;;;;;;15.20;6.30;;;;;;;17.94;72.58;97935.54;108437;1253;94283;-81
2023/10/22 08:00:01;;;;;;;;;;;;;;;;;;;;;
2023/10/22 08:02:37;;;;;;;16.60;7.00;;;;;;;18.18;72.56;97938.95;108459;1253;109193;-83
2023/10/22 08:05:06;;;;;;;22.50;6.80;;;;;;;18.24;72.49;97937.98;108690;1254;95511;-84
2023/10/22 08:07:49;;;;;;;17.80;6.80;;;;;;;18.29;72.46;97939.23;108400;1254;110063;-83
2023/10/22 08:10:54;;;;;;;18.40;6.80;;;;;;;18.35;72.42;97943.38;108502;1259;94318;-83
2023/10/22 08:13:53;;;;;;;19.20;6.90;;;;;;;18.40;72.46;97947.61;108630;1254;95365;-86
2023/10/22 08:20:36;;;;;;;18.60;8.00;;;;;;;18.65;72.39;97937.00;108177;1259;95350;-83
2023/10/22 08:23:28;;;;;;;14.90;6.70;;;;;;;18.70;72.42;97937.02;108036;1259;106455;-84
2023/10/22 08:26:30;;;;;;;18.00;6.50;;;;;;;18.84;72.61;97933.54;108247;1254;95186;-83
2023/10/22 08:29:25;;;;;;;15.60;6.00;;;;;;;18.96;72.54;97922.69;108412;1254;94357;-83
2023/10/22 08:32:17;;;;;;;17.50;6.70;;;;;;;19.07;72.34;97911.84;108559;1255;109712;-83
2023/10/22 08:35:03;;;;;;;15.60;7.00;;;;;;;19.10;72.19;97918.25;108552;1254;94527;-83
2023/10/22 08:37:55;;;;;;;15.70;6.70;;;;;;;19.07;72.13;97913.80;108577;1254;107550;-83
2023/10/22 08:40:29;;;;;;;15.80;5.80;;;;;;;19.04;72.04;97910.45;108536;1254;94292;-82
2023/10/22 08:43:01;;;;;;;16.90;6.00;;;;;;;19.01;71.77;97906.44;108423;1254;94597;-81
2023/10/22 08:45:36;;;;;;;15.90;6.30;;;;;;;18.99;71.77;97910.11;108498;1257;109367;-82
2023/10/22 08:48:11;;;;;;;15.80;5.90;;;;;;;18.99;72.00;97910.95;108605;1254;95471;-82
2023/10/22 08:51:22;;;;;;;;;;;;;;;;;;;;;
2023/10/22 08:54:49;;;;;;;14.10;5.70;;;;;;;19.02;71.84;97909.77;108266;1257;94312;-91
2023/10/22 08:57:30;;;;;;;19.30;6.20;;;;;;;18.97;71.60;97908.18;108230;1257;94641;-79
2023/10/22 08:59:59;;;;;;;18.70;5.90;;;;;;;18.90;71.47;97909.02;108360;1257;109850;-78
2023/10/22 09:02:31;;;;;;;12.90;5.00;;;;;;;18.84;71.62;97910.29;108339;1257;95697;-78
2023/10/22 09:05:00;;;;;;;15.10;4.90;;;;;;;18.80;71.47;97906.89;108333;1257;108265;-78
2023/10/22 09:07:53;;;;;;;15.10;5.60;;;;;;;18.74;71.53;97911.65;108300;1257;94490;-78
2023/10/22 09:10:29;;;;;;;13.70;5.00;;;;;;;18.73;71.57;97905.55;108267;1257;94682;-78
2023/10/22 09:13:26;;;;;;;15.90;5.40;;;;;;;18.74;71.25;97901.55;108287;1257;109887;-78
2023/10/22 09:15:54;;;;;;;11.10;4.70;;;;;;;18.76;71.37;97896.08;108352;1257;95071;-78
2023/10/22 09:18:24;;;;;;;16.20;5.20;;;;;;;18.77;71.21;97898.24;108258;1257;107625;-77
2023/10/22 09:21:07;;;;;;;17.60;5.30;;;;;;;18.79;71.21;97898.27;108293;1257;94387;-84
2023/10/22 09:23:38;;;;;;;16.30;6.70;;;;;;;18.83;71.18;97899.79;108304;1257;94820;-82
2023/10/22 09:26:11;;;;;;;18.50;6.40;;;;;;;18.86;71.01;97889.83;108604;1253;109609;-81
2023/10/22 09:29:04;;;;;;;15.20;6.50;;;;;;;18.84;70.86;97897.86;108729;1253;95924;-82
2023/10/22 09:31:34;;;;;;;17.60;7.80;;;;;;;18.82;70.92;97901.31;108708;1254;107590;-79
2023/10/22 09:34:03;;;;;;;17.90;8.00;;;;;;;18.85;71.05;97897.83;108681;1253;94487;-79
2023/10/22 09:36:50;;;;;;;21.20;7.80;;;;;;;18.91;70.87;97899.58;108747;1251;94559;-79
2023/10/22 09:39:42;;;;;;;17.80;8.00;;;;;;;18.98;70.64;97896.25;108547;1254;110121;-80
2023/10/22 09:42:16;;;;;;;19.20;8.00;;;;;;;19.06;70.87;97891.11;108564;1254;95774;-81
2023/10/22 09:44:47;;;;;;;20.40;8.40;;;;;;;19.14;70.69;97891.55;108498;1254;107629;-82
2023/10/22 09:47:26;;;;;;;17.90;7.90;;;;;;;19.19;70.72;97889.08;108543;1254;94412;-80
2023/10/22 09:50:04;;;;;;;17.70;7.70;;;;;;;19.23;70.58;97882.69;108659;1254;94344;-85
2023/10/22 09:52:50;;;;;;;19.80;9.00;;;;;;;19.25;70.49;97881.59;108642;1254;109933;-85
2023/10/22 09:55:30;;;;;;;17.60;7.80;;;;;;;19.24;70.51;97880.38;108660;1253;95193;-82
2023/10/22 09:58:00;;;;;;;16.60;7.90;;;;;;;19.27;70.58;97880.60;108676;1254;107804;-82
2023/10/22 10:03:36;;;;;;;15.80;7.50;;;;;;;19.33;70.62;97883.05;102569;1292;636480;-84
2023/10/22 10:06:08;;;;;;;16.50;7.70;;;;;;;19.34;70.39;97880.41;104801;1266;95126;-83
2023/10/22 10:08:43;;;;;;;19.40;8.40;;;;;;;19.37;70.25;97881.11;105025;1267;95291;-84
2023/10/22 10:11:14;;;;;;;19.70;9.00;;;;;;;19.35;70.20;97882.11;105344;1268;107204;-81
2023/10/22 10:13:46;;;;;;;21.80;9.10;;;;;;;19.30;70.06;97880.13;105407;1268;95510;-83
2023/10/22 10:16:14;;;;;;;20.20;8.40;;;;;;;19.26;70.01;97879.27;104589;1264;257493;-81
2023/10/22 10:19:04;;;;;;;16.60;8.10;;;;;;;19.21;69.97;97883.13;107766;1265;92292;-83
2023/10/22 10:21:36;;;;;;;21.50;9.50;;;;;;;19.17;69.99;97883.36;107163;1253;94276;-80
2023/10/22 10:24:20;;;;;;;21.00;9.90;;;;;;;19.10;69.70;97884.54;106442;1253;108450;-81
2023/10/22 10:26:50;;;;;;;21.20;10.60;;;;;;;19.00;69.82;97880.90;106428;1252;95224;-78
2023/10/22 10:29:31;;;;;;;19.50;10.70;;;;;;;18.91;69.67;97879.47;105510;1254;107822;-78
2023/10/22 10:32:14;;;;;;;21.80;11.40;;;;;;;18.83;69.75;97870.73;105334;1258;95352;-83
2023/10/22 10:34:46;;;;;;;22.20;11.30;;;;;;;18.80;69.78;97875.35;105869;1252;95115;-82
2023/10/22 10:37:17;;;;;;;21.00;10.50;;;;;;;18.77;69.69;97869.40;105909;1264;108631;-79
2023/10/22 10:39:54;;;;;;;22.10;11.90;;;;;;;18.74;69.65;97875.31;105525;1259;95661;-80
2023/10/22 10:42:28;;;;;;;21.20;11.10;;;;;;;18.70;69.49;97873.70;105210;1261;107417;-84
2023/10/22 10:45:18;;;;;;;;;;;;;;;;;;;;;
2023/10/22 10:47:55;;;;;;;18.20;10.10;;;;;;;18.63;69.55;97878.86;105767;1253;95205;-81
2023/10/22 10:50:23;;;;;;;17.90;9.20;;;;;;;18.59;69.52;97874.30;105707;1253;108017;-80
2023/10/22 10:52:57;;;;;;;20.90;9.20;;;;;;;18.56;69.46;97872.86;105950;1253;95275;-86
2023/10/22 10:55:32;;;;;;;20.00;10.10;;;;;;;18.51;69.51;97873.02;106012;1268;108277;-79
2023/10/22 10:58:01;;;;;;;19.40;10.40;;;;;;;18.46;69.53;97866.40;105811;1253;96289;-80
2023/10/22 11:00:30;;;;;;;20.60;9.70;;;;;;;18.41;69.52;97874.75;105814;1253;95168;-79
2023/10/22 11:03:05;;;;;;;18.10;9.00;;;;;;;18.34;69.37;97885.86;105416;1253;108629;-80
2023/10/22 11:05:37;;;;;;;15.70;8.20;;;;;;;18.28;69.40;97888.23;105500;1255;95447;-79
2023/10/22 11:08:11;;;;;;;18.20;9.00;;;;;;;18.21;69.45;97895.69;105523;1257;107100;-80
2023/10/22 11:10:42;;;;;;;18.70;8.90;;;;;;;18.18;69.42;97890.39;105354;1259;95364;-84
2023/10/22 11:13:11;;;;;;;15.50;8.50;;;;;;;18.14;69.41;97884.11;105935;1256;96483;-81
2023/10/22 11:15:40;;;;;;;14.10;7.20;;;;;;;18.10;69.30;97883.27;105735;1267;108549;-81
2023/10/22 11:18:11;;;;;;;12.90;6.30;;;;;;;18.05;69.32;97889.59;105787;1256;96344;-80
2023/10/22 11:20:40;;;;;;;12.60;6.40;;;;;;;18.00;69.36;97894.82;105716;1259;107223;-81
2023/10/22 11:23:18;;;;;;;13.60;6.80;;;;;;;17.93;69.35;97890.83;105863;1256;95732;-80
2023/10/22 11:25:47;;;;;;;13.20;6.10;;;;;;;17.85;69.41;97890.19;105763;1253;96061;-81
2023/10/22 11:28:15;;;;;;;16.80;7.10;;;;;;;17.77;69.44;97889.50;105902;1252;108551;-81
2023/10/22 11:30:43;;;;;;;13.90;6.60;;;;;;;17.70;69.53;97888.52;105231;1258;95241;-80
2023/10/22 11:33:33;;;;;;;17.70;7.60;;;;;;;17.65;69.56;97894.19;105055;1270;107644;-80
2023/10/22 11:36:17;;;;;;;17.70;7.70;;;;;;;17.60;69.58;97894.78;105938;1259;95375;-81
2023/10/22 11:38:47;;;;;;;17.50;7.90;;;;;;;17.56;69.60;97896.17;105753;1257;96061;-81
2023/10/22 11:41:16;;;;;;;12.70;6.20;;;;;;;17.51;69.71;97908.27;105767;1257;108520;-79
2023/10/22 11:43:44;;;;;;;16.50;6.60;;;;;;;17.46;69.55;97909.73;105642;1255;95346;-81
2023/10/22 11:46:12;;;;;;;12.20;6.20;;;;;;;17.39;69.69;97912.48;105966;1252;107225;-79
2023/10/22 11:48:44;;;;;;;15.20;6.60;;;;;;;17.36;69.72;97916.07;105293;1264;95253;-80
2023/10/22 11:51:15;;;;;;;13.00;5.80;;;;;;;17.34;69.81;97916.30;105368;1257;95225;-81
2023/10/22 11:53:43;;;;;;;10.10;5.60;;;;;;;17.33;69.84;97915.77;105261;1258;108667;-79
2023/10/22 11:56:12;;;;;;;11.20;5.80;;;;;;;17.31;69.66;97918.45;105957;1258;95174;-79
2023/10/22 11:58:52;;;;;;;11.60;5.80;;;;;;;17.33;69.93;97912.58;106214;1253;107597;-79
2023/10/22 12:01:25;;;;;;;10.40;4.90;;;;;;;17.32;69.86;97917.54;105815;1258;95326;-79
2023/10/22 12:03:53;;;;;;;12.40;6.20;;;;;;;17.28;69.89;97912.03;105681;1253;95924;-80
2023/10/22 12:06:22;;;;;;;11.10;5.40;;;;;;;17.24;70.05;97917.30;106086;1253;107971;-80
2023/10/22 12:08:50;;;;;;;8.10;4.80;;;;;;;17.21;70.04;97919.52;105593;1258;95355;-81
2023/10/22 12:11:18;;;;;;;7.30;4.50;;;;;;;17.19;69.97;97920.14;105567;1253;107679;-82
2023/10/22 12:13:46;;;;;;;9.10;4.80;;;;;;;17.17;70.08;97932.55;105635;1253;95282;-80
2023/10/22 12:16:15;;;;;;;10.90;5.30;;;;;;;17.12;70.17;97935.22;105398;1260;96160;-81
2023/10/22 12:18:46;;;;;;;7.60;4.50;;;;;;;17.08;70.17;97933.34;105689;1268;108197;-80
2023/10/22 12:21:14;;;;;;;8.10;4.60;;;;;;;17.04;70.31;97939.59;105641;1253;95178;-81
2023/10/22 12:23:42;;;;;;;8.50;4.50;;;;;;;17.00;70.29;97943.77;105812;1253;107736;-79
2023/10/22 12:26:16;;;;;;;7.10;4.70;;;;;;;16.97;70.41;97946.45;105812;1253;95301;-81